Time;durP1;ratioP1;P1;durP2;ratioP2;P2;SDS_P1;SDS_P2;PMS_P1;PMS_P2;Temp;Humidity;BMP_temperature;BMP_pressure;BME280_temperature;BME280_humidity;BME280_pressure;Samples;Min_cycle;Max_cycle;Signal;HPM_P1;HPM_P2
2022/04/19 00:00:55;;;;;;;8.88;3.95;;;;;;;3.45;nan;100216.66;5011772;28;20127;-69
2022/04/19 00:03:21;;;;;;;7.57;4.53;;;;;;;3.40;nan;100216.41;5012368;28;20077;-69
2022/04/19 00:05:47;;;;;;;8.82;4.60;;;;;;;3.26;nan;100189.41;5010673;28;20144;-70
2022/04/19 00:08:14;;;;;;;8.25;4.07;;;;;;;3.30;nan;100182.84;5010873;28;20065;-71
2022/04/19 00:10:40;;;;;;;9.38;4.28;;;;;;;3.38;nan;100206.16;5008746;28;20042;-71
2022/04/19 00:13:07;;;;;;;8.20;4.25;;;;;;;3.25;nan;100192.97;5009722;28;20034;-72
2022/04/19 00:15:33;;;;;;;9.55;4.53;;;;;;;3.35;nan;100195.31;5011380;28;20239;-70
2022/04/19 00:18:02;;;;;;;8.20;4.88;;;;;;;3.38;nan;100206.16;5009289;28;20034;-70
2022/04/19 00:20:28;;;;;;;9.77;4.80;;;;;;;3.18;nan;100192.09;5010824;28;20049;-71
2022/04/19 00:22:54;;;;;;;8.45;4.90;;;;;;;2.99;nan;100172.66;5009508;28;20080;-71
2022/04/19 00:25:20;;;;;;;8.80;4.80;;;;;;;3.17;nan;100193.09;5011154;28;20080;-69
2022/04/19 00:27:46;;;;;;;8.38;4.93;;;;;;;3.17;nan;100196.50;5011081;28;20030;-70
2022/04/19 00:30:13;;;;;;;11.57;5.82;;;;;;;3.16;nan;100194.06;5010417;28;20041;-69
2022/04/19 00:32:39;;;;;;;14.95;6.25;;;;;;;3.00;nan;100194.28;5008874;28;20492;-69
2022/04/19 00:35:06;;;;;;;13.20;6.65;;;;;;;2.91;nan;100191.75;5012934;28;20040;-72
2022/04/19 00:37:35;;;;;;;13.85;6.78;;;;;;;2.92;nan;100182.16;5010329;28;20048;-69
2022/04/19 00:40:04;;;;;;;16.73;7.85;;;;;;;2.84;nan;100196.06;5010907;28;20048;-69
2022/04/19 00:42:30;;;;;;;;;;;;;;;2.62;nan;100197.75;5025180;28;20051;-70
2022/04/19 00:45:02;;;;;;;15.27;7.28;;;;;;;2.56;nan;100198.47;5008246;28;20019;-71
2022/04/19 00:47:28;;;;;;;13.90;7.47;;;;;;;2.58;nan;100178.28;5016986;28;20033;-70
2022/04/19 00:49:53;;;;;;;12.95;7.07;;;;;;;2.59;nan;100186.94;5011097;28;20049;-70
2022/04/19 00:52:19;;;;;;;15.98;7.88;;;;;;;2.48;nan;100180.34;5009938;28;20511;-70
2022/04/19 00:54:48;;;;;;;11.90;6.80;;;;;;;2.54;nan;100196.06;5010772;28;20140;-70
2022/04/19 00:57:14;;;;;;;14.13;7.20;;;;;;;2.54;nan;100197.84;5010707;28;20084;-69
2022/04/19 00:59:41;;;;;;;14.32;7.10;;;;;;;2.30;nan;100181.50;5016190;28;20132;-70
2022/04/19 01:02:07;;;;;;;15.25;6.28;;;;;;;2.32;nan;100187.31;5008367;28;20033;-70
2022/04/19 01:04:32;;;;;;;12.10;7.10;;;;;;;2.31;nan;100182.28;5009720;28;20030;-69
2022/04/19 01:06:58;;;;;;;13.50;7.18;;;;;;;2.33;nan;100188.94;5010093;28;20084;-70
2022/04/19 01:09:24;;;;;;;13.73;6.30;;;;;;;2.09;nan;100178.75;5014296;28;20026;-71
2022/04/19 01:14:36;;;;;;;10.35;5.57;;;;;;;2.10;nan;100162.16;5013798;28;20034;-69
2022/04/19 01:17:03;;;;;;;9.98;5.63;;;;;;;2.19;nan;100184.50;5014195;28;20129;-69
2022/04/19 01:19:29;;;;;;;11.32;5.80;;;;;;;2.01;nan;100165.81;5013896;28;20042;-69
2022/04/19 01:21:54;;;;;;;14.20;6.25;;;;;;;1.96;nan;100175.91;5014031;28;20506;-70
2022/04/19 01:24:21;;;;;;;15.85;6.35;;;;;;;1.99;nan;100184.19;5013295;28;20033;-69
2022/04/19 01:26:48;;;;;;;16.15;5.63;;;;;;;1.97;nan;100174.97;5012349;28;20030;-70
2022/04/19 01:29:15;;;;;;;11.68;5.68;;;;;;;1.88;nan;100175.00;5010987;28;20038;-69
2022/04/19 01:31:42;;;;;;;11.35;6.50;;;;;;;1.92;nan;100183.25;5014042;28;20124;-70
2022/04/19 01:34:09;;;;;;;13.00;6.10;;;;;;;1.86;nan;100181.34;5011336;28;20036;-70
2022/04/19 01:36:38;;;;;;;15.63;7.13;;;;;;;1.68;nan;100153.09;5011439;28;20034;-69
2022/04/19 01:39:08;;;;;;;14.75;6.57;;;;;;;1.66;nan;100160.25;5013937;28;20487;-70
2022/04/19 01:41:36;;;;;;;14.40;6.80;;;;;;;1.77;nan;100180.59;5013343;28;20052;-69
2022/04/19 01:44:04;;;;;;;17.60;6.90;;;;;;;1.66;nan;100176.63;5015028;28;20108;-70
2022/04/19 01:46:31;;;;;;;15.13;6.53;;;;;;;1.66;nan;100175.81;5011652;28;20057;-69
2022/04/19 01:48:58;;;;;;;15.07;6.90;;;;;;;1.55;nan;100163.22;5012200;28;20048;-70
2022/04/19 01:51:24;;;;;;;12.85;6.32;;;;;;;1.52;nan;100169.56;5013599;28;20515;-70
2022/04/19 01:53:50;;;;;;;12.63;6.75;;;;;;;1.53;nan;100167.78;5013505;28;20455;-71
2022/04/19 01:56:16;;;;;;;13.60;6.85;;;;;;;1.59;nan;100174.88;5013843;28;20148;-70
2022/04/19 01:58:42;;;;;;;16.45;7.60;;;;;;;1.43;nan;100160.22;5011119;28;20818;-70
2022/04/19 02:01:08;;;;;;;15.27;7.82;;;;;;;1.53;nan;100172.97;5013126;28;20057;-70
2022/04/19 02:03:34;;;;;;;22.30;7.95;;;;;;;1.55;nan;100177.00;5011529;28;20100;-70
2022/04/19 02:06:00;;;;;;;20.25;7.57;;;;;;;1.53;nan;100160.78;5011105;28;20066;-70
2022/04/19 02:08:27;;;;;;;16.40;7.82;;;;;;;1.56;nan;100160.47;5012523;28;20034;-70
2022/04/19 02:10:52;;;;;;;21.13;8.18;;;;;;;1.65;nan;100166.41;5013200;28;20030;-71
2022/04/19 02:13:18;;;;;;;14.60;7.95;;;;;;;1.68;nan;100160.88;5013218;28;20116;-69
2022/04/19 02:15:46;;;;;;;17.25;8.27;;;;;;;1.65;nan;100145.63;5011343;28;20045;-71
2022/04/19 02:18:11;;;;;;;17.13;9.15;;;;;;;1.66;nan;100147.25;5013306;28;20439;-69
2022/04/19 02:20:37;;;;;;;13.77;7.75;;;;;;;1.80;nan;100161.28;5026906;28;20042;-70
2022/04/19 02:23:02;;;;;;;17.38;8.00;;;;;;;1.79;nan;100159.66;5012872;28;20040;-69
2022/04/19 02:25:28;;;;;;;18.23;8.30;;;;;;;1.77;nan;100162.41;5012215;28;20038;-70
2022/04/19 02:27:54;;;;;;;14.73;7.55;;;;;;;1.79;nan;100170.03;5012633;28;20036;-70
2022/04/19 02:30:20;;;;;;;16.20;7.70;;;;;;;1.75;nan;100172.19;5012943;28;20034;-70
2022/04/19 02:32:50;;;;;;;16.88;7.80;;;;;;;1.69;nan;100160.69;5008899;28;20038;-70
2022/04/19 02:35:21;;;;;;;14.13;6.72;;;;;;;1.75;nan;100168.75;5013080;28;20034;-70
2022/04/19 02:37:51;;;;;;;12.48;6.90;;;;;;;1.76;nan;100168.59;5010397;28;20137;-69
2022/04/19 02:40:23;;;;;;;13.18;7.47;;;;;;;1.65;nan;100162.03;5017225;28;20026;-70
2022/04/19 02:42:51;;;;;;;13.90;7.00;;;;;;;1.64;nan;100164.78;5012140;28;20037;-70
2022/04/19 02:45:19;;;;;;;14.55;7.68;;;;;;;1.72;nan;100172.50;5012260;28;20029;-70
2022/04/19 02:47:46;;;;;;;14.43;8.43;;;;;;;1.58;nan;100162.88;5018483;28;20033;-71
2022/04/19 02:50:12;;;;;;;15.43;8.15;;;;;;;1.58;nan;100153.31;5024212;28;20052;-71
2022/04/19 02:52:37;;;;;;;16.17;7.70;;;;;;;1.61;nan;100160.75;5018354;28;20093;-70
2022/04/19 02:55:03;;;;;;;16.25;7.75;;;;;;;1.55;nan;100152.84;5018463;28;20579;-70
2022/04/19 02:57:28;;;;;;;16.90;7.75;;;;;;;1.58;nan;100168.91;5024250;28;20495;-70
2022/04/19 02:59:54;;;;;;;14.82;7.38;;;;;;;1.52;nan;100166.16;5021279;28;20499;-69
2022/04/19 03:02:20;;;;;;;14.57;7.60;;;;;;;1.40;nan;100161.34;5012016;28;20373;-70
2022/04/19 03:04:45;;;;;;;16.45;7.80;;;;;;;1.27;nan;100164.53;5011267;28;20144;-71
2022/04/19 03:07:14;;;;;;;14.20;7.57;;;;;;;1.30;nan;100178.94;5010961;28;20132;-71
2022/04/19 03:09:41;;;;;;;14.30;8.15;;;;;;;1.25;nan;100179.44;5011934;28;20423;-69
2022/04/19 03:12:10;;;;;;;18.92;7.90;;;;;;;1.18;nan;100170.72;5011916;28;20495;-70
2022/04/19 03:14:36;;;;;;;14.83;6.30;;;;;;;1.11;nan;100168.97;5010812;28;20088;-71
2022/04/19 03:17:01;;;;;;;20.63;7.78;;;;;;;1.07;nan;100173.69;5011334;28;20073;-70
2022/04/19 03:19:26;;;;;;;17.70;8.68;;;;;;;0.97;nan;100165.28;5011343;28;20034;-70
2022/04/19 03:21:52;;;;;;;23.13;8.73;;;;;;;1.02;nan;100170.78;5010254;28;20045;-70
2022/04/19 03:29:46;;;;;;;17.50;8.13;;;;;;;0.94;nan;100173.41;5010391;28;20061;-71
2022/04/19 03:32:11;;;;;;;16.33;7.65;;;;;;;0.90;nan;100177.31;5010713;28;20074;-71
2022/04/19 03:34:38;;;;;;;18.23;8.40;;;;;;;0.86;nan;100176.81;5004104;28;20037;-71
2022/04/19 03:37:04;;;;;;;27.77;8.30;;;;;;;0.79;nan;100166.34;5006315;28;20101;-70
2022/04/19 03:39:29;;;;;;;19.65;8.30;;;;;;;0.77;nan;100170.06;5010824;28;20105;-68
2022/04/19 03:41:57;;;;;;;22.98;8.65;;;;;;;0.71;nan;100168.94;5008022;28;20049;-69
2022/04/19 03:44:25;;;;;;;19.23;8.20;;;;;;;0.74;nan;100176.41;5009818;28;20129;-70
2022/04/19 03:47:09;;;;;;;24.55;8.70;;;;;;;0.69;nan;100175.25;5009445;28;20030;-70
2022/04/19 03:49:39;;;;;;;21.00;7.82;;;;;;;0.69;nan;100185.63;5011222;28;20029;-70
2022/04/19 03:52:06;;;;;;;19.58;8.23;;;;;;;0.68;nan;100194.38;5009868;28;20100;-71
2022/04/19 03:54:34;;;;;;;14.90;8.00;;;;;;;0.66;nan;100197.13;5010858;28;20440;-70
2022/04/19 03:57:05;;;;;;;20.73;8.45;;;;;;;0.63;nan;100184.50;5011194;28;20042;-71
2022/04/19 03:59:31;;;;;;;26.08;9.45;;;;;;;0.86;nan;100205.34;5010798;28;20038;-70
2022/04/19 04:01:58;;;;;;;26.48;9.02;;;;;;;0.72;nan;100185.28;5009880;28;20111;-70
2022/04/19 04:04:25;;;;;;;16.33;8.05;;;;;;;0.67;nan;100191.00;5009569;28;20042;-70
2022/04/19 04:06:50;;;;;;;21.52;9.40;;;;;;;0.67;nan;100201.34;5011320;28;20120;-70
2022/04/19 04:09:16;;;;;;;22.75;9.25;;;;;;;0.68;nan;100210.72;5014912;28;20125;-70
2022/04/19 04:11:41;;;;;;;22.23;9.68;;;;;;;0.59;nan;100193.56;5009653;28;20037;-70
2022/04/19 04:14:06;;;;;;;21.20;8.90;;;;;;;0.71;nan;100209.59;5013582;28;20061;-71
2022/04/19 04:16:32;;;;;;;25.30;10.23;;;;;;;0.49;nan;100178.22;5011844;28;20484;-70
2022/04/19 04:18:57;;;;;;;28.67;10.45;;;;;;;0.67;nan;100195.34;5013186;28;20037;-70
2022/04/19 04:21:22;;;;;;;36.47;10.43;;;;;;;0.70;nan;100201.00;5009290;28;20476;-70
2022/04/19 04:23:48;;;;;;;38.33;10.43;;;;;;;0.72;nan;100203.41;5015343;28;20034;-70
2022/04/19 04:26:13;;;;;;;26.77;10.00;;;;;;;0.75;nan;100201.31;5009813;28;20026;-70
2022/04/19 04:28:39;;;;;;;19.67;9.05;;;;;;;0.78;nan;100216.53;5009219;28;20108;-71
2022/04/19 04:31:06;;;;;;;22.65;9.68;;;;;;;0.88;nan;100229.31;5010040;28;20133;-70
2022/04/19 04:33:31;;;;;;;37.38;9.10;;;;;;;0.84;nan;100228.03;5017529;28;20033;-71
2022/04/19 04:35:58;;;;;;;32.38;9.65;;;;;;;0.85;nan;100230.44;5017664;28;20036;-71
2022/04/19 04:38:23;;;;;;;28.23;9.55;;;;;;;0.84;nan;100234.03;5011860;28;20046;-70
2022/04/19 04:40:49;;;;;;;21.08;9.57;;;;;;;0.79;nan;100241.50;5009200;28;20041;-70
2022/04/19 04:43:14;;;;;;;19.02;8.80;;;;;;;0.72;nan;100231.94;5010908;28;20038;-70
2022/04/19 04:45:39;;;;;;;19.33;8.93;;;;;;;0.65;nan;100224.03;5013053;28;20054;-71
2022/04/19 04:50:49;;;;;;;17.25;7.85;;;;;;;0.58;nan;100234.22;5012098;28;20502;-70
2022/04/19 04:53:14;;;;;;;16.25;8.40;;;;;;;0.55;nan;100216.44;5010086;28;20038;-70
2022/04/19 04:55:39;;;;;;;20.80;9.02;;;;;;;0.76;nan;100235.81;5011774;28;20038;-71
2022/04/19 04:58:05;;;;;;;19.77;9.05;;;;;;;0.80;nan;100232.72;5013639;28;20069;-71
2022/04/19 05:00:30;;;;;;;23.80;8.75;;;;;;;0.83;nan;100229.00;5011480;28;20029;-70
2022/04/19 05:02:56;;;;;;;25.45;10.02;;;;;;;0.86;nan;100233.84;5014378;28;20033;-70
2022/04/19 05:05:21;;;;;;;22.45;8.70;;;;;;;0.91;nan;100222.97;5011160;28;20026;-69
2022/04/19 05:07:47;;;;;;;31.55;8.82;;;;;;;1.00;nan;100230.56;5011467;28;20029;-69
2022/04/19 05:10:13;;;;;;;20.45;9.70;;;;;;;1.10;nan;100240.75;4995233;28;20049;-71
2022/04/19 05:12:38;;;;;;;22.35;9.93;;;;;;;1.02;nan;100231.22;5012789;28;20435;-70
2022/04/19 05:15:04;;;;;;;18.98;10.07;;;;;;;0.96;nan;100223.28;5013704;28;20076;-70
2022/04/19 05:17:30;;;;;;;25.33;9.98;;;;;;;1.08;nan;100247.09;5025005;28;20405;-70
2022/04/19 05:19:56;;;;;;;23.10;9.55;;;;;;;1.12;nan;100245.78;5002948;28;20036;-69
2022/04/19 05:22:22;;;;;;;24.10;10.80;;;;;;;1.13;nan;100245.63;5011502;28;20041;-69
2022/04/19 05:24:48;;;;;;;26.67;10.73;;;;;;;1.13;nan;100239.63;5011109;28;20041;-71
2022/04/19 05:27:13;;;;;;;18.73;9.95;;;;;;;1.11;nan;100224.22;5013698;28;20029;-71
2022/04/19 05:29:39;;;;;;;26.10;10.88;;;;;;;1.27;nan;100236.34;5010314;28;20149;-70
2022/04/19 05:32:05;;;;;;;21.52;10.02;;;;;;;1.34;nan;100241.66;5028715;28;20145;-70
2022/04/19 05:34:31;;;;;;;24.25;10.80;;;;;;;1.42;nan;100247.63;5011794;28;20038;-71
2022/04/19 05:36:56;;;;;;;18.90;9.40;;;;;;;1.42;nan;100239.84;5006306;28;20492;-71
2022/04/19 05:39:22;;;;;;;23.88;9.90;;;;;;;1.57;nan;100252.09;5005747;28;20065;-70
2022/04/19 05:41:47;;;;;;;18.60;9.82;;;;;;;1.54;nan;100242.06;5013026;28;20049;-70
2022/04/19 05:44:13;;;;;;;17.02;9.38;;;;;;;1.54;nan;100234.28;5012129;28;20042;-71
2022/04/19 05:46:38;;;;;;;19.98;9.68;;;;;;;1.79;nan;100248.72;5009728;28;20033;-70
2022/04/19 05:49:04;;;;;;;24.05;9.25;;;;;;;1.90;nan;100256.13;5026493;28;20073;-69
2022/04/19 05:51:30;;;;;;;15.65;8.80;;;;;;;2.00;nan;100247.31;5013326;28;20033;-69
2022/04/19 05:53:55;;;;;;;19.95;9.13;;;;;;;2.19;nan;100251.25;5021080;28;20040;-69
2022/04/19 05:56:21;;;;;;;16.65;8.80;;;;;;;2.41;nan;100254.81;5011952;28;20475;-71
2022/04/19 05:58:46;;;;;;;18.30;7.85;;;;;;;2.46;nan;100245.50;5017339;28;20112;-71
2022/04/19 06:01:12;;;;;;;17.83;8.32;;;;;;;2.62;nan;100246.34;5026910;28;20036;-71
2022/04/19 06:06:22;;;;;;;16.67;8.65;;;;;;;2.93;nan;100259.22;5029535;28;20041;-71
2022/04/19 06:08:49;;;;;;;16.27;8.30;;;;;;;2.72;nan;100221.69;5029960;28;20059;-71
2022/04/19 06:11:14;;;;;;;21.73;9.18;;;;;;;3.13;nan;100268.09;5029435;28;20034;-71
2022/04/19 06:13:41;;;;;;;17.52;8.75;;;;;;;3.18;nan;100257.97;5026419;28;20129;-71
2022/04/19 06:16:06;;;;;;;22.20;9.00;;;;;;;3.26;nan;100244.06;5021140;28;20045;-70
2022/04/19 06:18:32;;;;;;;24.80;9.23;;;;;;;3.39;nan;100257.22;5014597;28;20474;-70
2022/04/19 06:20:58;;;;;;;21.65;9.90;;;;;;;3.49;nan;100256.13;5017791;28;20034;-72
2022/04/19 06:23:25;;;;;;;24.13;8.82;;;;;;;3.57;nan;100254.25;5020183;28;20541;-71
2022/04/19 06:25:50;;;;;;;18.02;8.55;;;;;;;3.69;nan;100253.75;5012707;28;20479;-70
2022/04/19 06:28:16;;;;;;;19.88;8.05;;;;;;;3.88;nan;100262.78;5013277;28;20029;-71
2022/04/19 06:30:41;;;;;;;14.55;7.88;;;;;;;3.89;nan;100241.78;5012493;28;20480;-71
2022/04/19 06:33:07;;;;;;;14.85;8.18;;;;;;;4.04;nan;100255.53;5002564;28;20428;-70
2022/04/19 06:35:32;;;;;;;14.80;7.25;;;;;;;4.12;nan;100257.25;5026497;28;20168;-70
2022/04/19 06:37:57;;;;;;;17.08;7.85;;;;;;;4.22;nan;100244.69;5010733;28;20125;-71
2022/04/19 06:40:23;;;;;;;18.85;7.90;;;;;;;4.43;nan;100258.69;5011519;28;20048;-70
2022/04/19 06:42:48;;;;;;;14.65;7.70;;;;;;;4.50;nan;100246.53;5010935;28;20941;-69
2022/04/19 06:45:14;;;;;;;16.58;7.40;;;;;;;4.64;nan;100266.50;5011913;28;20096;-70
2022/04/19 06:47:40;;;;;;;14.43;7.68;;;;;;;4.71;nan;100269.16;5010942;28;20064;-71
2022/04/19 06:50:06;;;;;;;14.07;7.90;;;;;;;4.67;nan;100253.09;5010544;28;20030;-70
2022/04/19 06:52:32;;;;;;;12.02;7.43;;;;;;;4.79;nan;100248.16;5011463;28;20195;-70
2022/04/19 06:54:57;;;;;;;13.02;7.57;;;;;;;4.82;nan;100241.75;5011726;28;20511;-72
2022/04/19 06:57:23;;;;;;;13.52;8.45;;;;;;;5.07;nan;100262.97;5010986;28;20176;-72
2022/04/19 06:59:48;;;;;;;15.70;8.02;;;;;;;5.17;nan;100267.84;5027139;28;20037;-72
2022/04/19 07:02:14;;;;;;;18.88;8.55;;;;;;;5.20;nan;100251.81;5011319;28;20034;-72
2022/04/19 07:04:41;;;;;;;18.45;8.50;;;;;;;5.35;nan;100257.69;5022217;28;21039;-73
2022/04/19 07:07:09;;;;;;;14.45;8.52;;;;;;;5.39;nan;100248.50;5008949;28;20025;-72
2022/04/19 07:09:35;;;;;;;14.87;8.30;;;;;;;5.54;nan;100264.00;5007327;28;20113;-71
2022/04/19 07:12:01;;;;;;;14.63;7.30;;;;;;;5.61;nan;100267.47;5006171;28;20231;-72
2022/04/19 07:14:26;;;;;;;11.18;7.20;;;;;;;5.59;nan;100253.78;5011347;28;20036;-71
2022/04/19 07:16:52;;;;;;;59.00;24.73;;;;;;;5.74;nan;100258.84;5005290;28;20091;-70
2022/04/19 07:19:18;;;;;;;17.98;9.13;;;;;;;5.91;nan;100267.97;5007212;28;20068;-73
2022/04/19 07:27:13;;;;;;;13.15;7.65;;;;;;;6.54;nan;100274.72;4984541;28;20049;-72
2022/04/19 07:29:39;;;;;;;18.15;7.78;;;;;;;6.72;nan;100267.03;5019163;28;20042;-73
2022/04/19 07:32:04;;;;;;;15.15;7.03;;;;;;;6.74;nan;100253.75;5007909;28;20137;-73
2022/04/19 07:34:30;;;;;;;10.82;6.10;;;;;;;6.89;nan;100266.63;5010274;28;20049;-73
2022/04/19 07:36:57;;;;;;;10.23;6.65;;;;;;;6.89;nan;100256.16;5012801;28;20046;-73
2022/04/19 07:39:22;;;;;;;14.07;7.55;;;;;;;6.99;nan;100253.91;5011097;28;20034;-73
2022/04/19 07:41:47;;;;;;;16.45;7.90;;;;;;;7.19;nan;100269.59;5008055;28;20037;-72
2022/04/19 07:44:15;;;;;;;10.82;5.82;;;;;;;7.31;nan;100270.56;4997947;28;20408;-71
2022/04/19 07:46:42;;;;;;;11.32;5.82;;;;;;;7.34;nan;100256.25;5010183;28;20026;-71
2022/04/19 07:49:08;;;;;;;9.82;5.80;;;;;;;7.64;nan;100280.13;5011154;28;20387;-72
2022/04/19 07:51:35;;;;;;;8.52;5.28;;;;;;;7.72;nan;100265.97;5009912;28;20034;-73
2022/04/19 07:54:00;;;;;;;9.48;5.18;;;;;;;8.02;nan;100260.97;5003175;28;20336;-72
2022/04/19 07:56:26;;;;;;;13.63;5.22;;;;;;;8.24;nan;100267.50;4991544;28;20038;-73
2022/04/19 07:58:52;;;;;;;9.75;4.78;;;;;;;8.30;nan;100271.88;5006477;28;20114;-73
2022/04/19 08:01:18;;;;;;;10.07;4.97;;;;;;;8.32;nan;100269.84;5011299;28;20192;-72
2022/04/19 08:03:44;;;;;;;11.50;5.30;;;;;;;8.34;nan;100268.84;5003527;28;20046;-73
2022/04/19 08:06:09;;;;;;;8.73;4.80;;;;;;;8.25;nan;100250.72;4995400;28;20053;-71
2022/04/19 08:08:35;;;;;;;7.15;4.50;;;;;;;8.42;nan;100268.59;5001272;28;20172;-74
2022/04/19 08:11:02;;;;;;;10.43;4.97;;;;;;;8.27;nan;100234.78;5004667;28;20476;-72
2022/04/19 08:13:27;;;;;;;8.43;4.75;;;;;;;8.30;nan;100227.28;4998658;28;20061;-72
2022/04/19 08:15:52;;;;;;;6.63;4.32;;;;;;;8.50;nan;100249.97;5009499;28;20514;-71
2022/04/19 08:18:19;;;;;;;8.20;4.60;;;;;;;8.48;nan;100247.56;5007374;28;20034;-73
2022/04/19 08:20:45;;;;;;;12.30;4.82;;;;;;;8.62;nan;100248.25;5014300;28;20096;-72
2022/04/19 08:23:12;;;;;;;11.32;4.65;;;;;;;8.77;nan;100252.38;4992257;28;20041;-71
2022/04/19 08:25:39;;;;;;;9.18;4.88;;;;;;;8.86;nan;100251.03;5004556;28;20136;-73
2022/04/19 08:28:06;;;;;;;7.78;4.55;;;;;;;8.92;nan;100250.19;5020723;28;20077;-73
2022/04/19 08:30:32;;;;;;;6.78;3.58;;;;;;;8.90;nan;100233.84;4999088;28;20034;-73
2022/04/19 08:32:59;;;;;;;7.80;3.80;;;;;;;9.06;nan;100246.41;5001376;28;20509;-73
2022/04/19 08:35:25;;;;;;;8.40;3.90;;;;;;;9.21;nan;100253.13;5011482;28;20030;-73
2022/04/19 08:37:51;;;;;;;7.13;3.97;;;;;;;9.24;nan;100244.78;5032255;28;20507;-73
2022/04/19 08:40:18;;;;;;;7.15;3.55;;;;;;;9.27;nan;100239.13;5018428;28;20119;-74
2022/04/19 08:42:56;;;;;;;7.63;4.20;;;;;;;9.34;nan;100243.28;5011786;28;20045;-70
2022/04/19 08:45:26;;;;;;;13.48;4.43;;;;;;;9.47;nan;100242.28;5034331;28;20035;-71
2022/04/19 08:47:52;;;;;;;10.03;5.07;;;;;;;9.57;nan;100239.13;4991640;28;20184;-71
2022/04/19 08:50:20;;;;;;;8.70;4.93;;;;;;;9.58;nan;100235.50;5025587;28;20030;-71
2022/04/19 08:57:29;;;;;;;14.68;5.28;;;;;;;9.65;nan;100230.13;5022060;28;20041;-70
2022/04/19 08:58:18;;;;;;;7.28;3.83;;;;;;;9.86;nan;100234.09;5017192;28;20275;-70
2022/04/19 09:00:44;;;;;;;4.13;1.85;;;;;;;9.94;nan;100239.06;5008794;28;20045;-70
2022/04/19 09:03:10;;;;;;;6.60;3.10;;;;;;;9.97;nan;100235.97;5008096;28;20080;-75
2022/04/19 09:05:51;;;;;;;9.05;3.13;;;;;;;10.05;nan;100225.13;5010564;28;20053;-73
2022/04/19 09:08:17;;;;;;;6.25;2.75;;;;;;;10.14;nan;100229.03;5007835;28;20037;-74
2022/04/19 09:10:42;;;;;;;7.53;2.70;;;;;;;10.23;nan;100234.78;5025147;28;20037;-74
2022/04/19 09:13:18;;;;;;;6.18;2.80;;;;;;;10.31;nan;100233.66;5006793;28;20514;-74
2022/04/19 09:15:45;;;;;;;8.00;2.90;;;;;;;10.16;nan;100191.97;5010255;28;20037;-72
2022/04/19 09:18:29;;;;;;;5.55;3.22;;;;;;;10.32;nan;100204.50;5008151;28;20064;-72
2022/04/19 09:20:56;;;;;;;5.43;3.00;;;;;;;10.42;nan;100217.91;5007857;28;20030;-73
2022/04/19 09:23:22;;;;;;;7.93;3.67;;;;;;;10.57;nan;100237.72;5009729;28;20034;-72
2022/04/19 09:25:56;;;;;;;7.13;3.80;;;;;;;10.59;nan;100214.59;5004877;28;20726;-74
2022/04/19 09:28:23;;;;;;;7.05;3.55;;;;;;;10.62;nan;100216.75;5008502;28;20451;-73
2022/04/19 09:30:56;;;;;;;6.15;3.22;;;;;;;10.76;nan;100218.13;5008024;28;20419;-74
2022/04/19 09:33:23;;;;;;;5.03;2.90;;;;;;;10.86;nan;100220.97;5005953;28;20388;-73
2022/04/19 09:35:53;;;;;;;4.75;2.80;;;;;;;10.94;nan;100217.19;5013243;28;20038;-74
2022/04/19 09:38:34;;;;;;;12.75;3.50;;;;;;;11.04;nan;100198.97;5004717;28;20037;-74
2022/04/19 09:40:59;;;;;;;5.57;3.30;;;;;;;11.16;nan;100206.84;5008367;28;20038;-73
2022/04/19 09:43:25;;;;;;;5.10;3.22;;;;;;;11.14;nan;100218.66;4997170;28;20030;-72
2022/04/19 09:45:55;;;;;;;8.05;3.53;;;;;;;11.22;nan;100216.44;5008223;28;20496;-73
2022/04/19 09:48:22;;;;;;;5.15;2.97;;;;;;;11.15;nan;100215.75;4994223;28;20128;-73
2022/04/19 09:50:59;;;;;;;5.43;3.10;;;;;;;11.23;nan;100214.63;5010044;28;20133;-72
2022/04/19 09:53:27;;;;;;;6.05;2.80;;;;;;;11.31;nan;100218.72;5013239;28;20143;-73
2022/04/19 09:55:55;;;;;;;8.27;2.83;;;;;;;11.37;nan;100210.66;5008964;28;20441;-73
2022/04/19 09:58:21;;;;;;;4.75;2.85;;;;;;;11.33;nan;100216.66;5027110;28;20038;-72
2022/04/19 10:00:48;;;;;;;4.30;2.85;;;;;;;11.37;nan;100208.00;5012137;28;20038;-72
2022/04/19 10:08:51;;;;;;;6.28;3.55;;;;;;;11.62;nan;100205.06;5023460;28;20386;-73
2022/04/19 10:11:17;;;;;;;10.73;3.83;;;;;;;11.64;nan;100195.09;5017118;28;20034;-72
2022/04/19 10:13:44;;;;;;;7.80;3.08;;;;;;;11.78;nan;100194.78;5017088;28;20554;-73
2022/04/19 10:16:14;;;;;;;7.82;3.58;;;;;;;11.88;nan;100197.63;5015809;28;20030;-74
2022/04/19 10:18:41;;;;;;;5.78;3.35;;;;;;;11.95;nan;100186.91;5012750;28;20034;-72
2022/04/19 10:21:12;;;;;;;6.25;2.83;;;;;;;11.90;nan;100182.38;5010312;28;20451;-70
2022/04/19 10:23:42;;;;;;;5.97;2.70;;;;;;;11.95;nan;100171.91;5003712;28;20080;-71
2022/04/19 10:26:18;;;;;;;7.25;3.10;;;;;;;12.22;nan;100187.88;5009018;28;20092;-71
2022/04/19 10:28:45;;;;;;;7.15;3.80;;;;;;;12.30;nan;100190.09;5020833;28;20138;-72
2022/04/19 10:31:12;;;;;;;10.85;4.45;;;;;;;12.28;nan;100176.38;5012734;28;20088;-72
2022/04/19 10:33:48;;;;;;;6.90;3.22;;;;;;;12.46;nan;100188.50;5010614;28;20128;-74
2022/04/19 10:36:22;;;;;;;4.78;2.22;;;;;;;12.62;nan;100181.59;5006696;28;20514;-73
2022/04/19 10:39:15;;;;;;;3.97;2.45;;;;;;;12.73;nan;100188.59;5011791;28;20084;-73
2022/04/19 10:41:53;;;;;;;5.32;2.25;;;;;;;12.74;nan;100178.84;5010181;28;20041;-73
2022/04/19 10:44:35;;;;;;;5.13;2.22;;;;;;;12.73;nan;100185.16;5010416;28;20507;-72
2022/04/19 10:47:28;;;;;;;4.45;2.33;;;;;;;12.71;nan;100177.50;5006084;28;20118;-73
2022/04/19 10:50:06;;;;;;;5.15;2.80;;;;;;;12.69;nan;100178.75;5010311;28;20053;-72
2022/04/19 10:52:42;;;;;;;3.67;2.10;;;;;;;12.65;nan;100182.97;5012306;28;20030;-72
2022/04/19 10:55:18;;;;;;;3.05;1.98;;;;;;;12.70;nan;100178.53;5026533;28;20103;-72
2022/04/19 11:00:34;;;;;;;4.53;2.08;;;;;;;12.81;nan;100163.63;5011441;28;20033;-72
2022/04/19 11:03:00;;;;;;;3.28;2.30;;;;;;;12.92;nan;100164.53;5012121;28;20030;-73
2022/04/19 11:05:44;;;;;;;5.68;2.33;;;;;;;12.95;nan;100161.41;5011409;28;20113;-72
2022/04/19 11:08:26;;;;;;;2.83;1.90;;;;;;;12.98;nan;100158.28;5010964;28;20496;-74
2022/04/19 11:10:51;;;;;;;3.95;2.10;;;;;;;13.07;nan;100155.97;5026008;28;20562;-73
2022/04/19 11:13:17;;;;;;;2.90;2.13;;;;;;;13.09;nan;100156.53;5009568;28;20110;-73
2022/04/19 11:15:43;;;;;;;2.72;2.05;;;;;;;13.15;nan;100153.72;5013175;28;20091;-73
2022/04/19 11:18:26;;;;;;;4.40;1.92;;;;;;;13.13;nan;100141.78;5010433;28;20034;-74
2022/04/19 11:20:53;;;;;;;6.13;2.10;;;;;;;13.31;nan;100152.06;5009796;28;20048;-70
2022/04/19 11:23:26;;;;;;;3.40;2.20;;;;;;;13.38;nan;100159.78;5011868;28;20042;-71
2022/04/19 11:25:56;;;;;;;3.30;2.10;;;;;;;13.36;nan;100144.19;5012017;28;20049;-74
2022/04/19 11:28:22;;;;;;;5.88;2.10;;;;;;;13.52;nan;100157.53;5008555;28;20104;-73
2022/04/19 11:30:57;;;;;;;5.05;2.28;;;;;;;13.59;nan;100152.84;5009896;28;20101;-73
2022/04/19 11:33:34;;;;;;;4.25;1.90;;;;;;;13.53;nan;100141.44;5009631;28;20041;-73
2022/04/19 11:36:04;;;;;;;5.28;2.25;;;;;;;13.65;nan;100156.34;5010991;28;20037;-74
2022/04/19 11:38:31;;;;;;;7.32;2.35;;;;;;;13.73;nan;100148.75;5011115;28;20125;-70
2022/04/19 11:46:44;;;;;;;4.65;2.13;;;;;;;13.93;nan;100152.59;5009319;28;20034;-74
2022/04/19 11:49:18;;;;;;;5.28;2.33;;;;;;;13.98;nan;100148.16;4991856;28;20492;-73
2022/04/19 11:51:52;;;;;;;10.88;2.05;;;;;;;13.92;nan;100128.00;5008892;28;20038;-71
2022/04/19 11:54:22;;;;;;;4.65;2.60;;;;;;;13.86;nan;100141.44;5024270;28;20050;-72
2022/04/19 11:56:51;;;;;;;4.72;2.53;;;;;;;13.89;nan;100154.19;5010671;28;20076;-72
2022/04/19 11:59:17;;;;;;;4.63;2.10;;;;;;;13.71;nan;100145.56;5009797;28;20129;-70
2022/04/19 12:01:49;;;;;;;6.80;2.60;;;;;;;13.72;nan;100149.81;5010644;28;20057;-71
2022/04/19 12:04:14;;;;;;;3.78;2.28;;;;;;;13.63;nan;100138.09;5009140;28;20447;-72
2022/04/19 12:06:46;;;;;;;3.08;2.00;;;;;;;13.64;nan;100139.66;5010498;28;20057;-72
2022/04/19 12:09:15;;;;;;;2.85;2.10;;;;;;;13.35;nan;100125.91;5022457;28;20072;-72
2022/04/19 12:11:41;;;;;;;3.47;2.40;;;;;;;13.43;nan;100133.38;5006135;28;20138;-72
2022/04/19 12:14:07;;;;;;;2.60;2.00;;;;;;;13.53;nan;100122.91;5026120;28;20084;-73
2022/04/19 12:16:39;;;;;;;4.88;2.20;;;;;;;13.66;nan;100132.28;5005775;28;20038;-69
2022/04/19 12:19:12;;;;;;;2.70;2.20;;;;;;;13.68;nan;100118.81;5007805;28;20034;-71